createdAt,value
2023-02-24T00:00:24.774Z,848.28
2023-02-24T00:01:24.782Z,848.30
2023-02-24T00:02:24.839Z,848.29
2023-02-24T00:03:24.790Z,848.36
2023-02-24T00:04:24.775Z,848.27
2023-02-24T00:05:24.730Z,848.33
2023-02-24T00:06:24.708Z,848.30
2023-02-24T00:07:24.699Z,848.31
2023-02-24T00:08:24.693Z,848.36
2023-02-24T00:09:24.680Z,848.34
2023-02-24T00:10:24.678Z,848.35
2023-02-24T00:11:24.690Z,848.36
2023-02-24T00:12:24.638Z,848.32
2023-02-24T00:13:24.632Z,848.30
2023-02-24T00:14:24.632Z,848.37
2023-02-24T00:15:24.634Z,848.34
2023-02-24T00:16:24.781Z,848.29
2023-02-24T00:17:24.639Z,848.29
2023-02-24T00:18:24.584Z,848.25
2023-02-24T00:19:24.589Z,848.23
2023-02-24T00:20:24.552Z,848.22
2023-02-24T00:21:24.544Z,848.17
2023-02-24T00:22:24.564Z,848.17
2023-02-24T00:23:24.525Z,848.19
2023-02-24T00:24:24.518Z,848.18
2023-02-24T00:25:24.518Z,848.18
2023-02-24T00:26:24.487Z,848.10
2023-02-24T00:27:24.519Z,848.14
2023-02-24T00:28:24.484Z,848.13
2023-02-24T00:29:24.462Z,848.15
2023-02-24T00:30:24.451Z,848.12
2023-02-24T00:31:24.916Z,848.14
2023-02-24T00:32:24.751Z,848.12
2023-02-24T00:33:24.432Z,848.12
2023-02-24T00:34:24.437Z,848.13
2023-02-24T00:35:24.413Z,848.13
2023-02-24T00:36:24.390Z,848.06
2023-02-24T00:37:24.380Z,848.05
2023-02-24T00:38:24.368Z,848.06
2023-02-24T00:39:24.362Z,848.11
2023-02-24T00:40:24.471Z,848.08
2023-02-24T00:41:24.448Z,848.10
2023-02-24T00:42:24.330Z,848.06
2023-02-24T00:43:24.337Z,848.10
2023-02-24T00:44:24.304Z,848.09
2023-02-24T00:45:24.298Z,848.09
2023-02-24T00:46:24.328Z,848.08
2023-02-24T00:47:24.286Z,848.08
2023-02-24T00:48:24.266Z,848.08
2023-02-24T00:49:24.261Z,848.05
2023-02-24T00:50:24.240Z,848.09
2023-02-24T00:51:24.237Z,848.07
2023-02-24T00:52:24.258Z,848.10
2023-02-24T00:53:24.227Z,848.08
2023-02-24T00:54:24.204Z,848.10
2023-02-24T00:55:24.196Z,848.11
2023-02-24T00:56:24.177Z,848.11
2023-02-24T00:57:24.376Z,848.11
2023-02-24T00:58:24.173Z,848.13
2023-02-24T00:59:24.213Z,848.11
2023-02-24T01:00:24.139Z,848.08
2023-02-24T01:01:24.150Z,848.12
2023-02-24T01:02:24.114Z,848.10
2023-02-24T01:03:24.122Z,848.14
2023-02-24T01:04:24.135Z,848.11
2023-02-24T01:05:24.085Z,848.13
2023-02-24T01:06:24.067Z,848.11
2023-02-24T01:07:24.065Z,848.07
2023-02-24T01:08:24.047Z,848.09
2023-02-24T01:09:24.051Z,848.05
2023-02-24T01:10:24.054Z,848.04
2023-02-24T01:11:24.020Z,847.98
2023-02-24T01:12:24.005Z,848.00
2023-02-24T01:13:24.000Z,847.99
2023-02-24T01:14:24.007Z,848.00
2023-02-24T01:15:24.026Z,847.98
2023-02-24T01:16:24.034Z,847.99
2023-02-24T01:17:23.956Z,847.94
2023-02-24T01:18:23.956Z,847.96
2023-02-24T01:19:23.934Z,847.95
2023-02-24T01:20:23.918Z,847.94
2023-02-24T01:21:23.923Z,847.92
2023-02-24T01:22:23.982Z,847.94
2023-02-24T01:23:23.889Z,847.91
2023-02-24T01:24:23.893Z,847.91
2023-02-24T01:25:23.879Z,847.93
2023-02-24T01:26:23.855Z,847.93
2023-02-24T01:27:23.849Z,847.93
2023-02-24T01:28:23.865Z,847.93
2023-02-24T01:29:23.827Z,847.95
2023-02-24T01:30:23.822Z,847.94
2023-02-24T01:31:24.571Z,847.94
2023-02-24T01:32:24.008Z,847.96
2023-02-24T01:33:23.988Z,847.93
2023-02-24T01:34:23.796Z,847.92
2023-02-24T01:35:23.769Z,847.97
2023-02-24T01:36:23.766Z,847.93
2023-02-24T01:37:23.744Z,847.95
2023-02-24T01:38:23.728Z,847.96
2023-02-24T01:39:23.722Z,847.96
2023-02-24T01:40:23.736Z,847.95
2023-02-24T01:41:23.714Z,847.91
2023-02-24T01:42:23.688Z,847.93
2023-02-24T01:43:23.681Z,847.88
2023-02-24T01:44:23.666Z,847.86
2023-02-24T01:45:23.679Z,847.86
2023-02-24T01:46:23.846Z,847.89
2023-02-24T01:47:23.660Z,847.88
2023-02-24T01:48:23.626Z,847.88
2023-02-24T01:49:23.617Z,847.93
2023-02-24T01:50:23.633Z,847.86
2023-02-24T01:51:23.605Z,847.83
2023-02-24T01:52:23.656Z,847.87
2023-02-24T01:53:23.577Z,847.86
2023-02-24T01:54:23.560Z,847.86
2023-02-24T01:55:23.553Z,847.84
2023-02-24T01:56:23.541Z,847.86
2023-02-24T01:57:23.537Z,847.84
2023-02-24T01:58:23.559Z,847.82
2023-02-24T01:59:23.533Z,847.80
2023-02-24T02:00:23.500Z,847.77
2023-02-24T02:01:23.944Z,847.80
2023-02-24T02:02:23.796Z,847.77
2023-02-24T02:03:23.494Z,847.68
2023-02-24T02:04:23.488Z,847.73
2023-02-24T02:05:23.455Z,847.73
2023-02-24T02:06:23.441Z,847.74
2023-02-24T02:07:23.429Z,847.73
2023-02-24T02:08:23.425Z,847.70
2023-02-24T02:09:23.420Z,847.68
2023-02-24T02:10:23.427Z,847.68
2023-02-24T02:11:23.670Z,847.68
2023-02-24T02:12:30.896Z,847.65
2023-02-24T02:13:30.924Z,847.66
2023-02-24T02:14:30.897Z,847.66
2023-02-24T02:15:30.861Z,847.67
2023-02-24T02:16:30.929Z,847.67
2023-02-24T02:17:30.851Z,847.66
2023-02-24T02:18:30.851Z,847.61
2023-02-24T02:19:23.302Z,847.63
2023-02-24T02:20:23.312Z,847.65
2023-02-24T02:21:23.424Z,847.65
2023-02-24T02:22:23.320Z,847.59
2023-02-24T02:23:23.260Z,847.54
2023-02-24T02:24:23.275Z,847.53
2023-02-24T02:25:23.231Z,847.54
2023-02-24T02:26:23.222Z,847.58
2023-02-24T02:27:23.242Z,847.55
2023-02-24T02:28:23.217Z,847.52
2023-02-24T02:29:23.189Z,847.51
2023-02-24T02:30:23.182Z,847.43
2023-02-24T02:31:23.714Z,847.47
2023-02-24T02:32:23.337Z,847.49
2023-02-24T02:33:23.146Z,847.43
2023-02-24T02:34:23.158Z,847.43
2023-02-24T02:35:23.123Z,847.41
2023-02-24T02:36:23.119Z,847.43
2023-02-24T02:37:23.116Z,847.42
2023-02-24T02:38:23.109Z,847.44
2023-02-24T02:39:23.094Z,847.47
2023-02-24T02:40:23.073Z,847.46
2023-02-24T02:41:23.422Z,847.40
2023-02-24T02:42:23.065Z,847.41
2023-02-24T02:43:23.044Z,847.40
2023-02-24T02:44:23.054Z,847.42
2023-02-24T02:45:23.017Z,847.40
2023-02-24T02:46:23.006Z,847.39
2023-02-24T02:47:23.109Z,847.41
2023-02-24T02:48:22.996Z,847.40
2023-02-24T02:49:22.985Z,847.40
2023-02-24T02:50:22.990Z,847.45
2023-02-24T02:51:23.265Z,847.46
2023-02-24T02:52:22.948Z,847.45
2023-02-24T02:53:22.942Z,847.43
2023-02-24T02:54:22.926Z,847.39
2023-02-24T02:55:22.924Z,847.45
2023-02-24T02:56:22.940Z,847.41
2023-02-24T02:57:22.883Z,847.41
2023-02-24T02:58:22.876Z,847.40
2023-02-24T02:59:22.867Z,847.40
2023-02-24T03:00:22.868Z,847.36
2023-02-24T03:01:23.391Z,847.37
2023-02-24T03:02:22.861Z,847.36
2023-02-24T03:03:22.829Z,847.37
2023-02-24T03:04:23.036Z,847.37
2023-02-24T03:05:22.810Z,847.29
2023-02-24T03:06:22.830Z,847.29
2023-02-24T03:07:22.777Z,847.28
2023-02-24T03:08:22.811Z,847.26
2023-02-24T03:09:22.756Z,847.25
2023-02-24T03:10:22.760Z,847.25
2023-02-24T03:11:22.997Z,847.24
2023-02-24T03:12:22.727Z,847.18
2023-02-24T03:13:22.715Z,847.15
2023-02-24T03:14:22.730Z,847.19
2023-02-24T03:15:22.692Z,847.19
2023-02-24T03:16:22.702Z,847.17
2023-02-24T03:17:22.667Z,847.17
2023-02-24T03:18:22.666Z,847.10
2023-02-24T03:19:22.649Z,847.11
2023-02-24T03:20:22.809Z,847.16
2023-02-24T03:21:22.929Z,847.16
2023-02-24T03:22:22.639Z,847.16
2023-02-24T03:23:22.606Z,847.12
2023-02-24T03:24:22.599Z,847.10
2023-02-24T03:25:22.585Z,847.09
2023-02-24T03:26:22.610Z,847.09
2023-02-24T03:27:22.563Z,847.06
2023-02-24T03:28:22.555Z,847.03
2023-02-24T03:29:22.543Z,847.10
2023-02-24T03:30:22.537Z,847.12
2023-02-24T03:31:23.235Z,847.05
2023-02-24T03:32:22.625Z,847.05
2023-02-24T03:33:22.500Z,847.06
2023-02-24T03:34:22.493Z,847.11
2023-02-24T03:35:22.475Z,847.08
2023-02-24T03:36:22.474Z,847.06
2023-02-24T03:37:22.467Z,847.04
2023-02-24T03:38:22.504Z,847.09
2023-02-24T03:39:22.437Z,847.14
2023-02-24T03:40:22.429Z,847.08
2023-02-24T03:41:22.731Z,847.13
2023-02-24T03:42:22.417Z,847.16
2023-02-24T03:43:22.399Z,847.21
2023-02-24T03:44:22.407Z,847.23
2023-02-24T03:45:22.372Z,847.23
2023-02-24T03:46:22.428Z,847.24
2023-02-24T03:47:22.352Z,847.23
2023-02-24T03:48:22.353Z,847.25
2023-02-24T03:49:22.335Z,847.26
2023-02-24T03:50:22.343Z,847.25
2023-02-24T03:51:22.666Z,847.23
2023-02-24T03:52:22.308Z,847.23
2023-02-24T03:53:22.299Z,847.18
2023-02-24T03:54:22.309Z,847.21
2023-02-24T03:55:22.265Z,847.14
2023-02-24T03:56:22.359Z,847.18
2023-02-24T03:57:22.247Z,847.14
2023-02-24T03:58:22.246Z,847.09
2023-02-24T03:59:22.240Z,847.09
2023-02-24T04:00:22.215Z,847.09
2023-02-24T04:01:22.619Z,847.14
2023-02-24T04:02:22.289Z,847.08
2023-02-24T04:03:22.179Z,847.11
2023-02-24T04:04:22.203Z,847.04
2023-02-24T04:05:22.159Z,847.07
2023-02-24T04:06:22.150Z,847.05
2023-02-24T04:07:22.149Z,847.04
2023-02-24T04:08:22.141Z,847.03
2023-02-24T04:09:22.156Z,847.09
2023-02-24T04:10:22.133Z,847.05
2023-02-24T04:11:22.435Z,847.10
2023-02-24T04:12:22.105Z,847.06
2023-02-24T04:13:22.070Z,847.01
2023-02-24T04:14:22.078Z,847.04
2023-02-24T04:15:22.086Z,847.04
2023-02-24T04:16:22.045Z,847.04
2023-02-24T04:17:22.029Z,847.02
2023-02-24T04:18:22.036Z,847.05
2023-02-24T04:19:22.009Z,847.06
2023-02-24T04:20:22.005Z,847.04
2023-02-24T04:21:22.486Z,847.02
2023-02-24T04:22:21.983Z,847.11
2023-02-24T04:23:21.970Z,847.06
2023-02-24T04:24:21.972Z,847.04
2023-02-24T04:25:21.946Z,847.08
2023-02-24T04:26:21.958Z,847.08
2023-02-24T04:27:21.955Z,847.07
2023-02-24T04:28:21.921Z,847.06
2023-02-24T04:29:21.902Z,847.06
2023-02-24T04:30:21.894Z,847.05
2023-02-24T04:31:22.295Z,847.02
2023-02-24T04:32:21.986Z,847.06
2023-02-24T04:33:21.929Z,847.08
2023-02-24T04:34:21.854Z,847.00
2023-02-24T04:35:21.839Z,847.04
2023-02-24T04:36:21.841Z,847.01
2023-02-24T04:37:21.829Z,847.07
2023-02-24T04:38:21.818Z,846.98
2023-02-24T04:39:21.815Z,847.04
2023-02-24T04:40:21.789Z,847.01
2023-02-24T04:41:22.140Z,847.10
2023-02-24T04:42:21.805Z,847.00
2023-02-24T04:43:21.764Z,847.05
2023-02-24T04:44:21.745Z,847.01
2023-02-24T04:45:21.760Z,847.07
2023-02-24T04:46:21.786Z,846.97
2023-02-24T04:47:21.722Z,846.99
2023-02-24T04:48:21.703Z,846.98
2023-02-24T04:49:21.688Z,847.02
2023-02-24T04:50:21.684Z,847.00
2023-02-24T04:51:21.946Z,847.03
2023-02-24T04:52:21.663Z,847.02
2023-02-24T04:53:21.753Z,847.01
2023-02-24T04:54:21.648Z,846.98
2023-02-24T04:55:21.627Z,846.94
2023-02-24T04:56:21.620Z,846.94
2023-02-24T04:57:21.652Z,846.90
2023-02-24T04:58:21.616Z,846.91
2023-02-24T04:59:21.609Z,846.86
2023-02-24T05:00:21.577Z,846.90
2023-02-24T05:01:21.873Z,846.84
2023-02-24T05:02:21.553Z,846.84
2023-02-24T05:03:21.652Z,846.86
2023-02-24T05:04:21.595Z,846.86
2023-02-24T05:05:21.532Z,846.87
2023-02-24T05:06:21.524Z,846.86
2023-02-24T05:07:21.500Z,846.85
2023-02-24T05:08:21.494Z,846.84
2023-02-24T05:09:21.517Z,846.83
2023-02-24T05:10:21.472Z,846.85
2023-02-24T05:11:21.759Z,846.86
2023-02-24T05:12:21.448Z,846.81
2023-02-24T05:13:21.452Z,846.80
2023-02-24T05:14:21.465Z,846.86
2023-02-24T05:15:21.487Z,846.84
2023-02-24T05:16:21.479Z,846.81
2023-02-24T05:17:21.397Z,846.79
2023-02-24T05:18:21.385Z,846.79
2023-02-24T05:19:21.373Z,846.73
2023-02-24T05:20:21.365Z,846.70
2023-02-24T05:21:21.681Z,846.74
2023-02-24T05:22:21.348Z,846.69
2023-02-24T05:23:21.330Z,846.72
2023-02-24T05:24:21.321Z,846.66
2023-02-24T05:25:21.309Z,846.69
2023-02-24T05:26:21.306Z,846.66
2023-02-24T05:27:21.333Z,846.61
2023-02-24T05:28:21.279Z,846.59
2023-02-24T05:29:21.269Z,846.59
2023-02-24T05:30:21.281Z,846.58
2023-02-24T05:31:21.694Z,846.57
2023-02-24T05:32:21.335Z,846.58
2023-02-24T05:33:21.228Z,846.53
2023-02-24T05:34:21.213Z,846.57
2023-02-24T05:35:21.203Z,846.57
2023-02-24T05:36:21.203Z,846.60
2023-02-24T05:37:21.191Z,846.60
2023-02-24T05:38:21.203Z,846.59
2023-02-24T05:39:21.164Z,846.58
2023-02-24T05:40:21.148Z,846.51
2023-02-24T05:41:21.447Z,846.53
2023-02-24T05:42:21.138Z,846.58
2023-02-24T05:43:21.117Z,846.53
2023-02-24T05:44:21.138Z,846.53
2023-02-24T05:45:21.090Z,846.50
2023-02-24T05:46:21.232Z,846.47
2023-02-24T05:47:21.069Z,846.47
2023-02-24T05:48:21.063Z,846.43
2023-02-24T05:49:21.048Z,846.42
2023-02-24T05:50:21.070Z,846.40
2023-02-24T05:51:21.318Z,846.43
2023-02-24T05:52:21.030Z,846.41
2023-02-24T05:53:21.006Z,846.41
2023-02-24T05:54:20.996Z,846.45
2023-02-24T05:55:20.982Z,846.42
2023-02-24T05:56:21.006Z,846.44
2023-02-24T05:57:20.986Z,846.46
2023-02-24T05:58:20.952Z,846.37
2023-02-24T05:59:20.937Z,846.41
2023-02-24T06:00:20.932Z,846.41
2023-02-24T06:01:21.269Z,846.37
2023-02-24T06:02:20.992Z,846.37
2023-02-24T06:03:20.913Z,846.36
2023-02-24T06:04:21.005Z,846.37
2023-02-24T06:05:20.997Z,846.38
2023-02-24T06:06:20.878Z,846.39
2023-02-24T06:07:20.854Z,846.42
2023-02-24T06:08:20.988Z,846.37
2023-02-24T06:09:20.833Z,846.37
2023-02-24T06:10:20.829Z,846.41
2023-02-24T06:11:21.414Z,846.38
2023-02-24T06:12:20.799Z,846.42
2023-02-24T06:13:20.796Z,846.45
2023-02-24T06:14:20.826Z,846.41
2023-02-24T06:15:20.780Z,846.46
2023-02-24T06:16:20.831Z,846.42
2023-02-24T06:17:20.753Z,846.47
2023-02-24T06:18:20.766Z,846.44
2023-02-24T06:19:20.729Z,846.46
2023-02-24T06:20:20.774Z,846.45
2023-02-24T06:21:21.024Z,846.48
2023-02-24T06:22:20.695Z,846.51
2023-02-24T06:23:20.707Z,846.49
2023-02-24T06:24:20.685Z,846.47
2023-02-24T06:25:20.669Z,846.47
2023-02-24T06:26:20.675Z,846.47
2023-02-24T06:27:20.651Z,846.52
2023-02-24T06:28:20.639Z,846.50
2023-02-24T06:29:20.628Z,846.53
2023-02-24T06:30:20.614Z,846.50
2023-02-24T06:31:20.993Z,846.49
2023-02-24T06:32:20.758Z,846.54
2023-02-24T06:33:20.596Z,846.55
2023-02-24T06:34:20.607Z,846.55
2023-02-24T06:35:20.558Z,846.49
2023-02-24T06:36:20.605Z,846.51
2023-02-24T06:37:20.567Z,846.53
2023-02-24T06:38:20.595Z,846.53
2023-02-24T06:39:20.518Z,846.57
2023-02-24T06:40:20.502Z,846.61
2023-02-24T06:41:20.893Z,846.60
2023-02-24T06:42:20.491Z,846.59
2023-02-24T06:43:20.475Z,846.61
2023-02-24T06:44:20.496Z,846.61
2023-02-24T06:45:20.452Z,846.65
2023-02-24T06:46:20.499Z,846.67
2023-02-24T06:47:20.443Z,846.67
2023-02-24T06:48:20.417Z,846.69
2023-02-24T06:49:20.409Z,846.70
2023-02-24T06:50:20.446Z,846.73
2023-02-24T06:51:20.822Z,846.75
2023-02-24T06:52:20.375Z,846.76
2023-02-24T06:53:20.382Z,846.79
2023-02-24T06:54:20.352Z,846.81
2023-02-24T06:55:20.348Z,846.81
2023-02-24T06:56:20.379Z,846.83
2023-02-24T06:57:20.323Z,846.79
2023-02-24T06:58:20.313Z,846.83
2023-02-24T06:59:20.313Z,846.82
2023-02-24T07:00:20.289Z,846.81
2023-02-24T07:01:20.652Z,846.78
2023-02-24T07:02:20.410Z,846.83
2023-02-24T07:03:21.106Z,846.82
2023-02-24T07:04:20.339Z,846.81
2023-02-24T07:05:20.237Z,846.84
2023-02-24T07:06:20.362Z,846.80
2023-02-24T07:07:20.215Z,846.78
2023-02-24T07:08:20.245Z,846.76
2023-02-24T07:09:20.193Z,846.79
2023-02-24T07:10:20.186Z,846.78
2023-02-24T07:11:20.535Z,846.76
2023-02-24T07:12:20.173Z,846.75
2023-02-24T07:13:20.157Z,846.76
2023-02-24T07:14:20.175Z,846.74
2023-02-24T07:15:20.131Z,846.74
2023-02-24T07:16:20.164Z,846.74
2023-02-24T07:17:20.130Z,846.71
2023-02-24T07:18:20.105Z,846.75
2023-02-24T07:19:20.095Z,846.75
2023-02-24T07:20:20.117Z,846.72
2023-02-24T07:21:20.470Z,846.72
2023-02-24T07:22:20.072Z,846.72
2023-02-24T07:23:20.150Z,846.68
2023-02-24T07:24:20.029Z,846.66
2023-02-24T07:25:20.024Z,846.64
2023-02-24T07:26:20.135Z,846.66
2023-02-24T07:27:20.056Z,846.63
2023-02-24T07:28:20.002Z,846.66
2023-02-24T07:29:19.995Z,846.64
2023-02-24T07:30:19.964Z,846.60
2023-02-24T07:31:20.582Z,846.64
2023-02-24T07:32:20.045Z,846.66
2023-02-24T07:33:19.936Z,846.66
2023-02-24T07:34:19.976Z,846.61
2023-02-24T07:35:19.913Z,846.63
2023-02-24T07:36:19.911Z,846.64
2023-02-24T07:37:19.910Z,846.57
2023-02-24T07:38:19.908Z,846.55
2023-02-24T07:39:19.875Z,846.50
2023-02-24T07:40:19.854Z,846.52
2023-02-24T07:41:20.178Z,846.51
2023-02-24T07:42:19.855Z,846.50
2023-02-24T07:43:19.824Z,846.55
2023-02-24T07:44:19.846Z,846.50
2023-02-24T07:45:19.842Z,846.53
2023-02-24T07:46:19.808Z,846.46
2023-02-24T07:47:19.784Z,846.47
2023-02-24T07:48:19.778Z,846.49
2023-02-24T07:49:19.883Z,846.50
2023-02-24T07:50:19.808Z,846.48
2023-02-24T07:51:20.182Z,846.49
2023-02-24T07:52:19.724Z,846.49
2023-02-24T07:53:19.717Z,846.49
2023-02-24T07:54:19.719Z,846.48
2023-02-24T07:55:19.697Z,846.49
2023-02-24T07:56:19.730Z,846.45
2023-02-24T07:57:19.672Z,846.43
2023-02-24T07:58:19.660Z,846.37
2023-02-24T07:59:19.649Z,846.41
2023-02-24T08:00:19.797Z,846.41
2023-02-24T08:01:20.001Z,846.39
2023-02-24T08:02:19.689Z,846.34
2023-02-24T08:03:19.606Z,846.35
2023-02-24T08:04:19.593Z,846.38
2023-02-24T08:05:19.616Z,846.37
2023-02-24T08:06:19.585Z,846.36
2023-02-24T08:07:19.578Z,846.39
2023-02-24T08:08:19.577Z,846.33
2023-02-24T08:09:19.542Z,846.37
2023-02-24T08:10:19.598Z,846.35
2023-02-24T08:11:19.785Z,846.29
2023-02-24T08:12:19.513Z,846.25
2023-02-24T08:13:19.499Z,846.29
2023-02-24T08:14:19.514Z,846.25
2023-02-24T08:15:19.477Z,846.26
2023-02-24T08:16:19.640Z,846.18
2023-02-24T08:17:19.460Z,846.19
2023-02-24T08:18:19.442Z,846.15
2023-02-24T08:19:19.438Z,846.14
2023-02-24T08:20:19.468Z,846.10
2023-02-24T08:21:19.695Z,846.07
2023-02-24T08:22:19.721Z,846.14
2023-02-24T08:23:19.391Z,846.08
2023-02-24T08:24:19.381Z,846.11
2023-02-24T08:25:19.472Z,846.08
2023-02-24T08:26:19.417Z,846.07
2023-02-24T08:27:19.346Z,846.07
2023-02-24T08:28:19.416Z,846.00
2023-02-24T08:29:19.328Z,845.98
2023-02-24T08:30:19.323Z,846.01
2023-02-24T08:31:19.913Z,845.99
2023-02-24T08:32:20.831Z,846.01
2023-02-24T08:33:19.331Z,845.97
2023-02-24T08:34:19.381Z,845.99
2023-02-24T08:35:19.273Z,845.97
2023-02-24T08:36:19.258Z,845.96
2023-02-24T08:37:19.239Z,846.00
2023-02-24T08:38:19.234Z,845.93
2023-02-24T08:39:19.220Z,845.94
2023-02-24T08:40:19.202Z,845.93
2023-02-24T08:41:19.835Z,845.90
2023-02-24T08:42:19.273Z,845.89
2023-02-24T08:43:19.171Z,845.90
2023-02-24T08:44:19.159Z,845.86
2023-02-24T08:45:19.153Z,845.88
2023-02-24T08:46:19.251Z,845.85
2023-02-24T08:47:19.146Z,845.88
2023-02-24T08:48:19.117Z,845.82
2023-02-24T08:49:19.114Z,845.83
2023-02-24T08:50:19.100Z,845.83
2023-02-24T08:51:19.477Z,845.79
2023-02-24T08:52:19.076Z,845.80
2023-02-24T08:53:19.088Z,845.84
2023-02-24T08:54:19.055Z,845.86
2023-02-24T08:55:19.065Z,845.78
2023-02-24T08:56:19.234Z,845.82
2023-02-24T08:57:19.047Z,845.80
2023-02-24T08:58:19.048Z,845.85
2023-02-24T08:59:19.026Z,845.82
2023-02-24T09:00:18.994Z,845.79
2023-02-24T09:01:19.628Z,845.83
2023-02-24T09:02:18.966Z,845.77
2023-02-24T09:03:18.971Z,845.82
2023-02-24T09:04:19.168Z,845.84
2023-02-24T09:05:18.937Z,845.79
2023-02-24T09:06:18.928Z,845.75
2023-02-24T09:07:18.938Z,845.80
2023-02-24T09:08:18.918Z,845.77
2023-02-24T09:09:19.231Z,845.80
2023-02-24T09:10:18.927Z,845.81
2023-02-24T09:11:19.257Z,845.79
2023-02-24T09:12:18.906Z,845.77
2023-02-24T09:13:18.927Z,845.75
2023-02-24T09:14:26.704Z,845.75
2023-02-24T09:15:19.827Z,845.75
2023-02-24T09:16:18.926Z,845.75
2023-02-24T09:17:18.818Z,845.72
2023-02-24T09:18:18.849Z,845.73
2023-02-24T09:19:18.789Z,845.72
2023-02-24T09:20:18.771Z,845.68
2023-02-24T09:21:19.068Z,845.60
2023-02-24T09:22:21.517Z,845.63
2023-02-24T09:23:18.743Z,845.65
2023-02-24T09:24:18.866Z,845.64
2023-02-24T09:25:18.729Z,845.63
2023-02-24T09:26:18.708Z,845.60
2023-02-24T09:27:18.695Z,845.63
2023-02-24T09:28:18.820Z,845.58
2023-02-24T09:29:18.674Z,845.57
2023-02-24T09:30:18.693Z,845.60
2023-02-24T09:31:18.907Z,845.55
2023-02-24T09:32:18.815Z,845.57
2023-02-24T09:33:18.651Z,845.55
2023-02-24T09:34:18.855Z,845.58
2023-02-24T09:35:18.621Z,845.56
2023-02-24T09:36:18.595Z,845.64
2023-02-24T09:37:18.591Z,845.59
2023-02-24T09:38:18.572Z,845.61
2023-02-24T09:39:18.563Z,845.60
2023-02-24T09:40:18.551Z,845.58
2023-02-24T09:41:19.240Z,845.61
2023-02-24T09:42:18.538Z,845.56
2023-02-24T09:43:18.522Z,845.55
2023-02-24T09:44:18.797Z,845.52
2023-02-24T09:45:18.500Z,845.53
2023-02-24T09:46:18.690Z,845.55
2023-02-24T09:47:18.477Z,845.46
2023-02-24T09:48:18.471Z,845.48
2023-02-24T09:49:18.500Z,845.49
2023-02-24T09:50:40.363Z,845.46
2023-02-24T09:51:20.000Z,845.49
2023-02-24T09:52:18.482Z,845.51
2023-02-24T09:53:18.413Z,845.44
2023-02-24T09:54:18.396Z,845.45
2023-02-24T09:55:18.391Z,845.43
2023-02-24T09:56:18.375Z,845.46
2023-02-24T09:57:18.459Z,845.43
2023-02-24T09:58:18.356Z,845.42
2023-02-24T09:59:18.349Z,845.37
2023-02-24T10:00:18.364Z,845.39
2023-02-24T10:01:18.390Z,845.37
2023-02-24T10:02:18.426Z,845.35
2023-02-24T10:03:18.317Z,845.29
2023-02-24T10:04:21.112Z,845.31
2023-02-24T10:05:18.283Z,845.30
2023-02-24T10:06:18.266Z,845.30
2023-02-24T10:07:18.273Z,845.29
2023-02-24T10:08:18.275Z,845.28
2023-02-24T10:09:18.240Z,845.31
2023-02-24T10:10:18.259Z,845.31
2023-02-24T10:11:18.258Z,845.27
2023-02-24T10:12:18.213Z,845.28
2023-02-24T10:13:18.239Z,845.24
2023-02-24T10:14:18.185Z,845.23
2023-02-24T10:15:18.213Z,845.23
2023-02-24T10:16:18.207Z,845.25
2023-02-24T10:17:18.187Z,845.25
2023-02-24T10:18:25.720Z,845.22
2023-02-24T10:19:18.140Z,845.22
2023-02-24T10:20:18.117Z,845.22
2023-02-24T10:21:18.409Z,845.26
2023-02-24T10:22:25.613Z,845.18
2023-02-24T10:23:18.087Z,845.17
2023-02-24T10:24:18.074Z,845.22
2023-02-24T10:25:21.070Z,845.23
2023-02-24T10:26:18.088Z,845.23
2023-02-24T10:27:25.589Z,845.22
2023-02-24T10:28:18.037Z,845.21
2023-02-24T10:29:26.557Z,845.22
2023-02-24T10:30:18.014Z,845.23
2023-02-24T10:31:18.272Z,845.22
2023-02-24T10:32:18.393Z,845.24
2023-02-24T10:33:18.000Z,845.21
2023-02-24T10:34:17.990Z,845.19
2023-02-24T10:35:18.003Z,845.22
2023-02-24T10:36:17.988Z,845.21
2023-02-24T10:37:27.520Z,845.11
2023-02-24T10:38:18.942Z,845.10
2023-02-24T10:39:17.981Z,845.15
2023-02-24T10:40:17.967Z,845.10
2023-02-24T10:41:17.913Z,845.08
2023-02-24T10:42:17.939Z,845.08
2023-02-24T10:43:17.972Z,845.06
2023-02-24T10:44:17.878Z,845.08
2023-02-24T10:45:18.862Z,845.00
2023-02-24T10:46:22.153Z,845.01
2023-02-24T10:47:18.861Z,845.02
2023-02-24T10:48:17.821Z,844.98
2023-02-24T10:49:17.804Z,844.95
2023-02-24T10:50:17.828Z,844.98
2023-02-24T10:51:17.783Z,844.90
2023-02-24T10:52:17.799Z,844.92
2023-02-24T10:53:17.759Z,844.92
2023-02-24T10:54:17.753Z,844.89
2023-02-24T10:55:17.741Z,844.90
2023-02-24T10:56:17.763Z,844.89
2023-02-24T10:57:17.717Z,844.91
2023-02-24T10:58:17.711Z,844.88
2023-02-24T10:59:17.775Z,844.84
2023-02-24T11:00:17.706Z,844.82
2023-02-24T11:01:17.738Z,844.82
2023-02-24T11:02:17.720Z,844.81
2023-02-24T11:03:31.356Z,844.83
2023-02-24T11:04:18.644Z,844.82
2023-02-24T11:05:17.624Z,844.84
2023-02-24T11:06:17.660Z,844.84
2023-02-24T11:07:17.614Z,844.78
2023-02-24T11:08:17.602Z,844.79
2023-02-24T11:09:17.584Z,844.79
2023-02-24T11:10:17.596Z,844.76
2023-02-24T11:11:17.571Z,844.74
2023-02-24T11:12:17.553Z,844.75
2023-02-24T11:13:17.537Z,844.73
2023-02-24T11:14:17.531Z,844.69
2023-02-24T11:15:17.534Z,844.61
2023-02-24T11:16:17.538Z,844.60
2023-02-24T11:17:17.528Z,844.59
2023-02-24T11:18:17.489Z,844.55
2023-02-24T11:19:17.500Z,844.63
2023-02-24T11:20:17.567Z,844.58
2023-02-24T11:21:17.471Z,844.52
2023-02-24T11:22:17.472Z,844.60
2023-02-24T11:23:17.443Z,844.55
2023-02-24T11:24:17.428Z,844.57
2023-02-24T11:25:17.433Z,844.54
2023-02-24T11:26:17.398Z,844.49
2023-02-24T11:27:17.413Z,844.44
2023-02-24T11:28:17.412Z,844.46
2023-02-24T11:29:17.373Z,844.46
2023-02-24T11:30:17.353Z,844.42
2023-02-24T11:31:17.560Z,844.43
2023-02-24T11:32:17.417Z,844.39
2023-02-24T11:33:17.326Z,844.38
2023-02-24T11:34:17.316Z,844.35
2023-02-24T11:35:17.294Z,844.32
2023-02-24T11:36:17.287Z,844.31
2023-02-24T11:37:17.294Z,844.32
2023-02-24T11:38:17.292Z,844.33
2023-02-24T11:39:21.431Z,844.27
2023-02-24T11:40:17.248Z,844.30
2023-02-24T11:41:17.276Z,844.23
2023-02-24T11:42:17.234Z,844.25
2023-02-24T11:43:17.214Z,844.20
2023-02-24T11:44:17.201Z,844.21
2023-02-24T11:45:17.189Z,844.16
2023-02-24T11:46:17.337Z,844.15
2023-02-24T11:47:17.162Z,844.12
2023-02-24T11:48:17.158Z,844.11
2023-02-24T11:49:17.146Z,844.07
2023-02-24T11:50:17.147Z,844.02
2023-02-24T11:51:17.143Z,844.07
2023-02-24T11:52:17.130Z,844.03
2023-02-24T11:53:17.099Z,843.99
2023-02-24T11:54:17.112Z,843.91
2023-02-24T11:55:17.078Z,843.99
2023-02-24T11:56:17.071Z,843.96
2023-02-24T11:57:17.068Z,843.98
2023-02-24T11:58:17.046Z,843.88
2023-02-24T11:59:17.034Z,843.90
2023-02-24T12:00:17.063Z,843.86
2023-02-24T12:01:17.023Z,843.80
2023-02-24T12:02:17.004Z,843.86
2023-02-24T12:03:17.149Z,843.84
2023-02-24T12:04:16.981Z,843.74
2023-02-24T12:05:16.981Z,843.75
2023-02-24T12:06:17.032Z,843.70
2023-02-24T12:07:16.955Z,843.76
2023-02-24T12:08:16.944Z,843.77
2023-02-24T12:09:16.927Z,843.69
2023-02-24T12:10:17.728Z,843.66
2023-02-24T12:11:16.916Z,843.71
2023-02-24T12:12:16.901Z,843.69
2023-02-24T12:13:16.881Z,843.74
2023-02-24T12:14:16.875Z,843.68
2023-02-24T12:15:16.860Z,843.66
2023-02-24T12:16:16.938Z,843.65
2023-02-24T12:17:16.837Z,843.66
2023-02-24T12:18:16.830Z,843.69
2023-02-24T12:19:16.815Z,843.62
2023-02-24T12:20:16.806Z,843.58
2023-02-24T12:21:16.793Z,843.64
2023-02-24T12:22:16.806Z,843.64
2023-02-24T12:23:16.783Z,843.55
2023-02-24T12:24:16.773Z,843.57
2023-02-24T12:25:16.780Z,843.59
2023-02-24T12:26:16.820Z,843.54
2023-02-24T12:27:16.726Z,843.48
2023-02-24T12:28:16.741Z,843.50